Time;durP1;ratioP1;P1;durP2;ratioP2;P2;SDS_P1;SDS_P2;PMS_P1;PMS_P2;Temp;Humidity;BMP_temperature;BMP_pressure;BME280_temperature;BME280_humidity;BME280_pressure;Samples;Min_cycle;Max_cycle;Signal;HPM_P1;HPM_P2
2023/08/10 00:00:29;;;;;;;5.43;1.80;;;;;;;;;;4945819;28;93172;-78
2023/08/10 00:02:55;;;;;;;8.52;1.80;;;;;;;;;;4942886;28;92721;-77
2023/08/10 00:05:22;;;;;;;6.45;2.15;;;;;;;;;;4952548;28;93189;-78
2023/08/10 00:07:48;;;;;;;4.28;1.65;;;;;;;;;;4948411;28;94144;-78
2023/08/10 00:10:15;;;;;;;5.38;1.65;;;;;;;;;;4944372;28;92495;-77
2023/08/10 00:12:42;;;;;;;7.13;1.90;;;;;;;;;;4955724;28;92862;-78
2023/08/10 00:15:09;;;;;;;4.32;1.90;;;;;;;;;;4947481;28;92410;-77
2023/08/10 00:17:35;;;;;;;5.72;1.80;;;;;;;;;;4951784;28;92468;-77
2023/08/10 00:20:10;;;;;;;7.30;1.80;;;;;;;;;;4950353;28;95568;-78
2023/08/10 00:22:37;;;;;;;6.10;1.92;;;;;;;;;;4951652;28;92381;-78
2023/08/10 00:25:05;;;;;;;8.98;1.60;;;;;;;;;;4941777;28;92671;-77
2023/08/10 00:27:31;;;;;;;6.10;1.98;;;;;;;;;;4965259;28;93780;-77
2023/08/10 00:29:59;;;;;;;;;;;;;;;;;;4924045;28;93005;-78
2023/08/10 00:32:25;;;;;;;8.05;2.15;;;;;;;;;;4946285;28;112711;-78
2023/08/10 00:34:52;;;;;;;6.43;1.70;;;;;;;;;;4938193;28;92781;-77
2023/08/10 00:37:19;;;;;;;5.78;2.10;;;;;;;;;;4944426;28;92805;-78
2023/08/10 00:39:45;;;;;;;6.22;1.92;;;;;;;;;;4942744;28;92434;-78
2023/08/10 00:42:12;;;;;;;5.65;1.85;;;;;;;;;;4947161;28;92496;-78
2023/08/10 00:44:39;;;;;;;5.20;1.80;;;;;;;;;;4948232;28;95317;-78
2023/08/10 00:47:06;;;;;;;6.05;1.95;;;;;;;;;;4949763;28;93470;-78
2023/08/10 00:49:33;;;;;;;4.88;1.73;;;;;;;;;;4938030;28;92914;-78
2023/08/10 00:52:00;;;;;;;5.78;1.90;;;;;;;;;;4947159;28;95530;-78
2023/08/10 00:54:26;;;;;;;5.03;1.83;;;;;;;;;;4949432;28;95586;-78
2023/08/10 00:56:53;;;;;;;5.85;1.80;;;;;;;;;;4939402;28;92815;-77
2023/08/10 00:59:20;;;;;;;5.03;1.70;;;;;;;;;;4948030;28;93045;-78
2023/08/10 01:01:46;;;;;;;7.18;1.80;;;;;;;;;;4942109;28;91701;-78
2023/08/10 01:04:13;;;;;;;5.70;1.90;;;;;;;;;;4951507;28;92551;-77
2023/08/10 01:06:46;;;;;;;6.40;1.70;;;;;;;;;;4951270;28;93332;-78
2023/08/10 01:09:22;;;;;;;5.88;1.80;;;;;;;;;;4938962;28;94891;-77
2023/08/10 01:11:56;;;;;;;7.43;2.00;;;;;;;;;;4940087;28;97618;-78
2023/08/10 01:14:30;;;;;;;5.57;1.90;;;;;;;;;;4951048;28;93189;-77
2023/08/10 01:16:57;;;;;;;6.65;1.90;;;;;;;;;;4954272;28;92469;-78
2023/08/10 01:19:42;;;;;;;6.55;1.50;;;;;;;;;;4951183;28;93685;-78
2023/08/10 01:22:09;;;;;;;4.95;1.65;;;;;;;;;;4949744;28;92537;-79
2023/08/10 01:24:40;;;;;;;5.03;2.00;;;;;;;;;;4940752;28;92639;-79
2023/08/10 01:27:08;;;;;;;6.22;1.60;;;;;;;;;;4951111;28;92220;-79
2023/08/10 01:29:35;;;;;;;4.75;1.40;;;;;;;;;;4951129;28;93211;-79
2023/08/10 01:32:02;;;;;;;5.25;1.60;;;;;;;;;;4949266;28;94011;-78
2023/08/10 01:34:29;;;;;;;4.07;1.67;;;;;;;;;;4936407;28;95512;-78
2023/08/10 01:36:55;;;;;;;4.53;1.80;;;;;;;;;;4945635;28;92558;-78
2023/08/10 01:39:22;;;;;;;5.47;1.60;;;;;;;;;;4935992;28;95456;-78
2023/08/10 01:41:48;;;;;;;4.63;1.58;;;;;;;;;;4948126;28;92805;-78
2023/08/10 01:44:15;;;;;;;6.80;1.60;;;;;;;;;;4942891;28;92840;-78
2023/08/10 01:46:43;;;;;;;6.65;1.83;;;;;;;;;;4945617;28;93545;-78
2023/08/10 01:49:11;;;;;;;10.38;1.90;;;;;;;;;;4950597;28;92560;-78
2023/08/10 01:51:39;;;;;;;5.15;1.63;;;;;;;;;;4949346;28;95968;-78
2023/08/10 01:54:06;;;;;;;4.88;1.60;;;;;;;;;;4932720;28;96041;-78
2023/08/10 01:56:33;;;;;;;5.00;1.52;;;;;;;;;;4941398;28;93027;-78
2023/08/10 01:58:59;;;;;;;6.28;1.55;;;;;;;;;;4942828;28;94781;-78
2023/08/10 02:01:26;;;;;;;5.82;1.50;;;;;;;;;;4953482;28;93104;-78
2023/08/10 02:03:53;;;;;;;6.93;1.77;;;;;;;;;;4950527;28;94998;-78
2023/08/10 02:06:19;;;;;;;3.58;1.48;;;;;;;;;;4944262;28;95680;-78
2023/08/10 02:08:47;;;;;;;4.30;1.55;;;;;;;;;;4940227;28;92453;-79
2023/08/10 02:11:14;;;;;;;3.85;1.38;;;;;;;;;;4933287;28;96187;-78
2023/08/10 02:13:40;;;;;;;5.43;1.80;;;;;;;;;;4952883;28;93251;-78
2023/08/10 02:16:07;;;;;;;3.83;1.50;;;;;;;;;;4953137;28;91864;-78
2023/08/10 02:18:34;;;;;;;;;;;;;;;;;;4954595;28;92476;-77
2023/08/10 02:21:00;;;;;;;5.32;1.63;;;;;;;;;;4948962;28;106115;-77
2023/08/10 02:23:29;;;;;;;5.53;1.60;;;;;;;;;;4953246;28;95237;-77
2023/08/10 02:25:55;;;;;;;3.00;1.30;;;;;;;;;;4943115;28;92986;-77
2023/08/10 02:28:22;;;;;;;4.57;1.60;;;;;;;;;;4953848;28;92520;-77
2023/08/10 02:30:48;;;;;;;4.65;1.67;;;;;;;;;;4945631;28;96182;-78
2023/08/10 02:33:15;;;;;;;4.78;1.60;;;;;;;;;;4942631;28;93298;-78
2023/08/10 02:35:41;;;;;;;5.55;1.88;;;;;;;;;;4940375;28;92587;-78
2023/08/10 02:38:08;;;;;;;3.22;1.50;;;;;;;;;;4956117;28;95746;-78
2023/08/10 02:40:34;;;;;;;3.45;1.27;;;;;;;;;;4944189;28;92367;-78
2023/08/10 02:43:01;;;;;;;4.18;1.42;;;;;;;;;;4951305;28;93061;-78
2023/08/10 02:45:27;;;;;;;5.25;1.60;;;;;;;;;;4952857;28;93246;-78
2023/08/10 02:47:54;;;;;;;5.28;1.52;;;;;;;;;;4951737;28;94957;-78
2023/08/10 02:50:21;;;;;;;4.60;1.52;;;;;;;;;;4949718;28;95057;-78
2023/08/10 02:52:48;;;;;;;5.13;1.70;;;;;;;;;;4953206;28;93300;-78
2023/08/10 02:55:17;;;;;;;4.82;1.58;;;;;;;;;;4951672;28;92555;-78
2023/08/10 02:57:43;;;;;;;2.97;1.17;;;;;;;;;;4949103;28;93257;-78
2023/08/10 03:00:12;;;;;;;2.63;1.33;;;;;;;;;;4951581;28;96216;-78
2023/08/10 03:02:39;;;;;;;4.18;1.40;;;;;;;;;;4948445;28;92485;-79
2023/08/10 03:05:08;;;;;;;7.55;1.50;;;;;;;;;;4932251;28;94835;-78
2023/08/10 03:07:36;;;;;;;3.72;1.60;;;;;;;;;;4946422;28;92536;-79
2023/08/10 03:10:03;;;;;;;5.65;1.60;;;;;;;;;;4925188;28;95196;-78
2023/08/10 03:12:32;;;;;;;3.55;1.40;;;;;;;;;;4944517;28;97607;-78
2023/08/10 03:14:59;;;;;;;5.15;1.50;;;;;;;;;;4951484;28;92883;-78
2023/08/10 03:17:26;;;;;;;3.45;1.50;;;;;;;;;;4942515;28;95280;-78
2023/08/10 03:19:52;;;;;;;5.35;1.48;;;;;;;;;;4953115;28;93001;-78
2023/08/10 03:22:25;;;;;;;4.10;1.77;;;;;;;;;;4951337;28;92482;-78
2023/08/10 03:24:53;;;;;;;5.05;1.60;;;;;;;;;;4964196;28;95117;-79
2023/08/10 03:27:19;;;;;;;4.00;1.50;;;;;;;;;;4938779;28;95859;-79
2023/08/10 03:29:46;;;;;;;8.43;1.60;;;;;;;;;;4950815;28;95594;-78
2023/08/10 03:32:12;;;;;;;4.28;1.40;;;;;;;;;;4940729;28;93199;-78
2023/08/10 03:34:39;;;;;;;4.55;1.42;;;;;;;;;;4950276;28;92580;-78
2023/08/10 03:37:06;;;;;;;6.82;1.80;;;;;;;;;;4937091;28;95215;-77
2023/08/10 03:39:33;;;;;;;5.05;1.50;;;;;;;;;;4946918;28;96104;-78
2023/08/10 03:41:59;;;;;;;6.13;1.60;;;;;;;;;;4937335;28;93003;-77
2023/08/10 03:44:26;;;;;;;4.35;1.60;;;;;;;;;;4941817;28;95285;-77
2023/08/10 03:46:53;;;;;;;4.07;1.60;;;;;;;;;;4947632;28;95861;-77
2023/08/10 03:49:22;;;;;;;4.20;1.40;;;;;;;;;;4954314;28;92459;-77
2023/08/10 03:51:53;;;;;;;4.72;1.50;;;;;;;;;;4949851;28;94862;-78
2023/08/10 03:54:19;;;;;;;4.05;1.50;;;;;;;;;;4947399;28;92154;-78
2023/08/10 03:56:46;;;;;;;5.07;1.52;;;;;;;;;;4949128;28;93797;-77
2023/08/10 03:59:13;;;;;;;5.50;1.45;;;;;;;;;;4943727;28;97604;-77
2023/08/10 04:01:41;;;;;;;5.22;1.55;;;;;;;;;;4941686;28;94950;-78
2023/08/10 04:04:08;;;;;;;4.97;1.55;;;;;;;;;;4950858;28;96461;-77
2023/08/10 04:06:35;;;;;;;6.20;1.80;;;;;;;;;;4952189;28;94148;-77
2023/08/10 04:09:02;;;;;;;3.88;1.45;;;;;;;;;;4949471;28;92835;-78
2023/08/10 04:11:29;;;;;;;;;;;;;;;;;;4944178;28;93865;-77
2023/08/10 04:13:56;;;;;;;4.45;1.77;;;;;;;;;;4940469;28;94205;-78
2023/08/10 04:16:22;;;;;;;4.78;1.60;;;;;;;;;;4951198;28;95924;-77
2023/08/10 04:18:49;;;;;;;5.25;1.55;;;;;;;;;;4952423;28;92399;-77
2023/08/10 04:21:16;;;;;;;5.18;1.80;;;;;;;;;;4952177;28;92518;-78
2023/08/10 04:23:42;;;;;;;4.72;1.63;;;;;;;;;;4942480;28;92775;-77
2023/08/10 04:26:09;;;;;;;4.63;1.70;;;;;;;;;;4937231;28;95419;-77
2023/08/10 04:28:35;;;;;;;6.25;1.77;;;;;;;;;;4942736;28;92513;-77
2023/08/10 04:31:02;;;;;;;4.20;1.60;;;;;;;;;;4953954;28;93954;-77
2023/08/10 04:33:28;;;;;;;4.50;1.60;;;;;;;;;;4936028;28;92481;-77
2023/08/10 04:35:55;;;;;;;4.93;1.95;;;;;;;;;;4937260;28;95878;-77
2023/08/10 04:38:22;;;;;;;5.45;1.63;;;;;;;;;;4941019;28;93276;-77
2023/08/10 04:40:48;;;;;;;4.78;1.60;;;;;;;;;;4940044;28;92518;-77
2023/08/10 04:43:14;;;;;;;5.25;1.52;;;;;;;;;;4950044;28;93757;-77
2023/08/10 04:45:42;;;;;;;4.72;1.60;;;;;;;;;;4950968;28;94155;-77
2023/08/10 04:48:10;;;;;;;4.40;1.50;;;;;;;;;;4950770;28;92468;-78
2023/08/10 04:50:36;;;;;;;5.00;1.73;;;;;;;;;;4948903;28;94838;-77
2023/08/10 04:53:03;;;;;;;7.55;1.95;;;;;;;;;;4953866;28;94257;-77
2023/08/10 04:55:30;;;;;;;6.07;1.65;;;;;;;;;;4938271;28;92950;-77
2023/08/10 04:57:57;;;;;;;3.03;1.50;;;;;;;;;;4949204;28;93208;-77
2023/08/10 05:00:23;;;;;;;5.65;1.60;;;;;;;;;;4949450;28;92480;-77
2023/08/10 05:02:53;;;;;;;6.38;1.95;;;;;;;;;;4938567;28;93588;-77
2023/08/10 05:05:19;;;;;;;5.50;1.88;;;;;;;;;;4950824;28;93250;-77
2023/08/10 05:07:46;;;;;;;4.82;1.90;;;;;;;;;;4959673;28;91792;-77
2023/08/10 05:10:13;;;;;;;5.18;1.60;;;;;;;;;;4934630;28;92504;-77
2023/08/10 05:12:39;;;;;;;5.07;1.80;;;;;;;;;;4948845;28;94421;-77
2023/08/10 05:15:08;;;;;;;3.47;1.65;;;;;;;;;;4952052;28;94775;-77
2023/08/10 05:17:34;;;;;;;4.93;1.95;;;;;;;;;;4950102;28;92568;-77
2023/08/10 05:20:07;;;;;;;4.93;1.90;;;;;;;;;;4949370;28;92709;-77
2023/08/10 05:22:33;;;;;;;4.38;1.60;;;;;;;;;;4950914;28;92529;-77
2023/08/10 05:25:00;;;;;;;4.22;1.90;;;;;;;;;;4930624;28;95948;-77
2023/08/10 05:27:27;;;;;;;6.15;1.63;;;;;;;;;;4944567;28;92526;-77
2023/08/10 05:29:54;;;;;;;5.78;2.05;;;;;;;;;;4943886;28;93805;-77
2023/08/10 05:32:21;;;;;;;5.03;1.70;;;;;;;;;;4941979;28;92439;-77
2023/08/10 05:34:48;;;;;;;6.43;2.03;;;;;;;;;;4941561;28;92387;-78
2023/08/10 05:37:14;;;;;;;5.38;1.88;;;;;;;;;;4939854;28;93107;-77
2023/08/10 05:39:41;;;;;;;5.45;1.85;;;;;;;;;;4943325;28;95185;-78
2023/08/10 05:42:07;;;;;;;6.63;2.00;;;;;;;;;;4939420;28;95291;-78
2023/08/10 05:44:34;;;;;;;5.68;1.70;;;;;;;;;;4950496;28;93642;-78
2023/08/10 05:47:01;;;;;;;5.38;2.10;;;;;;;;;;4950422;28;93069;-78
2023/08/10 05:49:27;;;;;;;4.40;1.80;;;;;;;;;;4965210;28;93054;-78
2023/08/10 05:51:54;;;;;;;4.25;1.60;;;;;;;;;;4942726;28;93736;-78
2023/08/10 05:54:20;;;;;;;5.55;2.00;;;;;;;;;;4940392;28;92468;-78
2023/08/10 05:56:47;;;;;;;5.38;1.90;;;;;;;;;;4951559;28;93008;-77
2023/08/10 05:59:13;;;;;;;5.88;1.67;;;;;;;;;;4953273;28;93296;-78
2023/08/10 06:01:43;;;;;;;5.85;2.00;;;;;;;;;;4951805;28;92461;-77
2023/08/10 06:04:10;;;;;;;5.15;2.00;;;;;;;;;;4951597;28;95619;-77
2023/08/10 06:06:36;;;;;;;4.05;1.73;;;;;;;;;;4946663;28;92672;-78
2023/08/10 06:09:04;;;;;;;4.05;1.73;;;;;;;;;;4947987;28;93059;-78
2023/08/10 06:11:30;;;;;;;;;;;;;;;;;;4941235;28;93316;-77
2023/08/10 06:14:11;;;;;;;5.93;1.85;;;;;;;;;;4965409;28;93048;-78
2023/08/10 06:16:38;;;;;;;8.27;2.30;;;;;;;;;;4960803;28;94656;-78
2023/08/10 06:19:04;;;;;;;9.13;2.00;;;;;;;;;;4966812;28;92505;-78
2023/08/10 06:21:31;;;;;;;4.32;1.60;;;;;;;;;;4957727;28;91553;-78
2023/08/10 06:23:58;;;;;;;5.60;1.95;;;;;;;;;;4959316;28;93354;-78
2023/08/10 06:26:24;;;;;;;6.07;2.03;;;;;;;;;;4946289;28;92572;-79
2023/08/10 06:28:51;;;;;;;6.47;2.00;;;;;;;;;;4945446;28;94777;-79
2023/08/10 06:31:21;;;;;;;9.40;2.00;;;;;;;;;;4950560;28;93718;-79
2023/08/10 06:33:47;;;;;;;6.00;2.25;;;;;;;;;;4926349;28;93284;-78
2023/08/10 06:36:14;;;;;;;8.52;2.22;;;;;;;;;;4931023;28;92911;-78
2023/08/10 06:38:41;;;;;;;7.28;2.28;;;;;;;;;;4930477;28;94078;-79
2023/08/10 06:41:10;;;;;;;6.30;2.17;;;;;;;;;;4939019;28;92936;-78
2023/08/10 06:43:36;;;;;;;5.45;2.00;;;;;;;;;;4946806;28;93203;-79
2023/08/10 06:46:03;;;;;;;7.78;1.90;;;;;;;;;;4930940;28;92304;-78
2023/08/10 06:48:30;;;;;;;3.90;1.83;;;;;;;;;;4927540;28;92604;-78
2023/08/10 06:50:57;;;;;;;4.28;1.83;;;;;;;;;;4939820;28;93027;-78
2023/08/10 06:53:23;;;;;;;5.25;1.85;;;;;;;;;;4919474;28;94881;-79
2023/08/10 06:55:50;;;;;;;4.05;1.80;;;;;;;;;;4938850;28;95113;-80
2023/08/10 06:58:17;;;;;;;5.85;1.95;;;;;;;;;;4947942;28;93681;-78
2023/08/10 07:00:47;;;;;;;5.18;2.08;;;;;;;;;;4948377;28;92551;-77
2023/08/10 07:03:14;;;;;;;5.15;1.60;;;;;;;;;;4940059;28;93020;-78
2023/08/10 07:05:42;;;;;;;5.47;1.83;;;;;;;;;;4949664;28;92797;-77
2023/08/10 07:08:09;;;;;;;4.28;1.65;;;;;;;;;;4948602;28;92912;-77
2023/08/10 07:10:36;;;;;;;8.90;2.03;;;;;;;;;;4940389;28;93371;-78
2023/08/10 07:13:03;;;;;;;6.43;1.90;;;;;;;;;;4944718;28;92329;-79
2023/08/10 07:15:33;;;;;;;6.03;1.80;;;;;;;;;;4949768;28;93088;-79
2023/08/10 07:17:59;;;;;;;3.28;1.60;;;;;;;;;;4942300;28;95347;-78
2023/08/10 07:20:30;;;;;;;4.80;1.80;;;;;;;;;;4953015;28;92402;-78
2023/08/10 07:22:57;;;;;;;4.18;1.90;;;;;;;;;;4942349;28;95639;-78
2023/08/10 07:25:23;;;;;;;4.47;1.50;;;;;;;;;;4945084;28;94329;-81
2023/08/10 07:27:50;;;;;;;4.57;1.55;;;;;;;;;;4945582;28;93305;-79
2023/08/10 07:30:17;;;;;;;3.97;1.70;;;;;;;;;;4944247;28;93587;-83
2023/08/10 07:32:44;;;;;;;5.07;1.58;;;;;;;;;;4934774;28;93332;-84
2023/08/10 07:35:11;;;;;;;3.60;1.90;;;;;;;;;;4948127;28;92783;-83
2023/08/10 07:37:40;;;;;;;5.15;1.55;;;;;;;;;;4946998;28;93229;-84
2023/08/10 07:40:08;;;;;;;6.03;2.05;;;;;;;;;;4946973;28;92749;-84
2023/08/10 07:42:34;;;;;;;10.82;3.03;;;;;;;;;;4950528;28;95429;-83
2023/08/10 07:45:01;;;;;;;5.78;1.85;;;;;;;;;;4946595;28;94645;-84
2023/08/10 07:47:27;;;;;;;5.32;2.00;;;;;;;;;;4952564;28;92405;-84
2023/08/10 07:49:55;;;;;;;6.38;2.30;;;;;;;;;;4950786;28;93486;-84
2023/08/10 07:52:22;;;;;;;5.30;1.80;;;;;;;;;;4944257;28;92638;-84
2023/08/10 07:54:48;;;;;;;4.57;1.80;;;;;;;;;;4951503;28;92743;-85
2023/08/10 07:57:15;;;;;;;5.72;2.58;;;;;;;;;;4938834;28;92837;-84
2023/08/10 07:59:41;;;;;;;6.13;2.70;;;;;;;;;;4942660;28;91830;-84
2023/08/10 08:02:10;;;;;;;4.63;1.80;;;;;;;;;;4950397;28;92795;-84
2023/08/10 08:04:36;;;;;;;7.55;2.63;;;;;;;;;;4951296;28;93162;-84
2023/08/10 08:07:03;;;;;;;6.38;2.20;;;;;;;;;;4941971;28;95193;-84
2023/08/10 08:09:29;;;;;;;6.57;2.88;;;;;;;;;;4938127;28;95232;-84
2023/08/10 08:11:56;;;;;;;6.50;2.90;;;;;;;;;;4938541;28;93040;-84
2023/08/10 08:14:23;;;;;;;6.57;2.60;;;;;;;;;;4952523;28;95774;-83
2023/08/10 08:16:49;;;;;;;6.03;2.35;;;;;;;;;;4946675;28;93125;-84
2023/08/10 08:19:17;;;;;;;5.75;2.05;;;;;;;;;;4940243;28;92539;-84
2023/08/10 08:21:48;;;;;;;8.30;2.40;;;;;;;;;;4946958;28;93177;-82
2023/08/10 08:24:15;;;;;;;5.88;1.80;;;;;;;;;;4942941;28;91846;-83
2023/08/10 08:26:41;;;;;;;5.93;1.88;;;;;;;;;;4945971;28;92659;-81
2023/08/10 08:29:08;;;;;;;5.55;1.80;;;;;;;;;;4949440;28;92920;-81
2023/08/10 08:31:36;;;;;;;5.63;1.80;;;;;;;;;;4938415;28;96653;-82
2023/08/10 08:34:03;;;;;;;4.75;1.70;;;;;;;;;;4937750;28;95174;-83
2023/08/10 08:36:30;;;;;;;5.38;1.70;;;;;;;;;;4932832;28;93218;-83
2023/08/10 08:38:56;;;;;;;4.65;1.80;;;;;;;;;;4924883;28;92929;-84
2023/08/10 08:41:25;;;;;;;4.82;1.70;;;;;;;;;;4937289;28;92926;-84
2023/08/10 08:43:52;;;;;;;7.25;1.77;;;;;;;;;;4952402;28;93265;-83
2023/08/10 08:46:24;;;;;;;5.78;1.85;;;;;;;;;;4949402;28;92842;-83
2023/08/10 08:48:51;;;;;;;3.45;1.70;;;;;;;;;;4943546;28;93359;-83
2023/08/10 08:51:17;;;;;;;5.82;1.80;;;;;;;;;;4936684;28;94112;-78
2023/08/10 08:53:44;;;;;;;5.28;2.05;;;;;;;;;;4944536;28;92903;-79
2023/08/10 08:56:11;;;;;;;3.90;1.73;;;;;;;;;;4938917;28;95792;-79
2023/08/10 08:58:37;;;;;;;5.32;2.03;;;;;;;;;;4950445;28;92660;-78
2023/08/10 09:01:04;;;;;;;6.25;1.98;;;;;;;;;;4948691;28;93044;-78
2023/08/10 09:03:31;;;;;;;4.70;1.80;;;;;;;;;;4946776;28;93043;-79
2023/08/10 09:05:58;;;;;;;6.45;2.13;;;;;;;;;;4942063;28;92728;-78
2023/08/10 09:08:24;;;;;;;5.65;1.83;;;;;;;;;;4942678;28;94356;-80
2023/08/10 09:10:51;;;;;;;5.45;2.00;;;;;;;;;;4935222;28;99242;-79
2023/08/10 09:13:19;;;;;;;5.95;2.33;;;;;;;;;;4950549;28;97823;-79
2023/08/10 09:15:45;;;;;;;5.22;2.10;;;;;;;;;;4936260;28;100415;-78
2023/08/10 09:18:12;;;;;;;4.93;1.95;;;;;;;;;;4944741;28;98542;-78
2023/08/10 09:20:39;;;;;;;5.25;2.00;;;;;;;;;;4928152;28;101694;-78
2023/08/10 09:23:06;;;;;;;5.90;1.70;;;;;;;;;;4932403;28;99366;-83
2023/08/10 09:25:37;;;;;;;3.65;1.67;;;;;;;;;;4943686;28;98947;-83
2023/08/10 09:28:09;;;;;;;5.15;1.63;;;;;;;;;;4948594;28;98872;-83
2023/08/10 09:30:36;;;;;;;6.95;2.15;;;;;;;;;;4939564;28;99225;-84
2023/08/10 09:33:03;;;;;;;4.47;1.60;;;;;;;;;;4928943;28;99116;-83
2023/08/10 09:35:30;;;;;;;6.60;1.63;;;;;;;;;;4932349;28;98672;-83
2023/08/10 09:38:01;;;;;;;5.40;1.90;;;;;;;;;;4940967;28;99876;-83
2023/08/10 09:40:28;;;;;;;4.05;1.63;;;;;;;;;;4942045;28;98559;-84
2023/08/10 09:42:55;;;;;;;3.95;1.63;;;;;;;;;;4942074;28;99611;-84
2023/08/10 09:45:22;;;;;;;5.03;1.67;;;;;;;;;;4942015;28;99917;-84
2023/08/10 09:47:49;;;;;;;4.50;1.63;;;;;;;;;;4929704;28;99634;-84
2023/08/10 09:50:16;;;;;;;5.05;1.50;;;;;;;;;;4942916;28;99750;-82
2023/08/10 09:52:43;;;;;;;3.03;1.42;;;;;;;;;;4941359;28;98986;-83
2023/08/10 09:55:10;;;;;;;3.35;1.50;;;;;;;;;;4944240;28;98876;-84
2023/08/10 09:57:44;;;;;;;4.97;1.70;;;;;;;;;;4948694;28;99242;-83
2023/08/10 10:00:22;;;;;;;4.55;1.60;;;;;;;;;;4948217;28;99857;-82
2023/08/10 10:02:49;;;;;;;5.47;1.92;;;;;;;;;;4945883;28;98598;-83
2023/08/10 10:05:17;;;;;;;5.22;1.77;;;;;;;;;;4939369;28;98527;-83
2023/08/10 10:08:00;;;;;;;5.32;1.80;;;;;;;;;;4940417;28;100260;-84
2023/08/10 10:10:28;;;;;;;4.60;1.63;;;;;;;;;;4930286;28;99857;-84
2023/08/10 10:12:55;;;;;;;4.72;1.58;;;;;;;;;;4938684;28;98654;-84
2023/08/10 10:15:22;;;;;;;4.55;1.50;;;;;;;;;;4962300;28;98415;-85
2023/08/10 10:17:52;;;;;;;3.80;1.55;;;;;;;;;;4958279;28;98513;-84
2023/08/10 10:20:19;;;;;;;4.38;1.50;;;;;;;;;;4955983;28;98761;-84
2023/08/10 10:22:46;;;;;;;4.72;1.70;;;;;;;;;;4941760;28;101574;-84
2023/08/10 10:25:16;;;;;;;4.75;1.42;;;;;;;;;;4939230;28;98496;-83
2023/08/10 10:27:46;;;;;;;4.05;1.60;;;;;;;;;;4937708;28;99729;-84
2023/08/10 10:30:15;;;;;;;3.85;1.50;;;;;;;;;;4928040;28;99107;-84
2023/08/10 10:32:43;;;;;;;3.80;1.52;;;;;;;;;;4931665;28;99778;-85
2023/08/10 10:35:10;;;;;;;2.90;1.50;;;;;;;;;;4938993;28;100265;-83
2023/08/10 10:37:37;;;;;;;4.60;1.90;;;;;;;;;;4933389;28;100223;-84
2023/08/10 10:40:03;;;;;;;;;;;;;;;;;;4934765;28;99286;-84
2023/08/10 10:42:30;;;;;;;5.68;1.73;;;;;;;;;;4949350;28;98840;-84
2023/08/10 10:45:07;;;;;;;3.63;1.65;;;;;;;;;;4950735;28;98563;-84
2023/08/10 10:47:35;;;;;;;3.67;1.40;;;;;;;;;;4938705;28;99169;-84
2023/08/10 10:50:14;;;;;;;3.28;1.50;;;;;;;;;;4956698;28;100117;-84
2023/08/10 10:52:48;;;;;;;4.05;1.40;;;;;;;;;;4931944;28;98057;-84
2023/08/10 10:55:15;;;;;;;4.93;1.50;;;;;;;;;;4924157;28;100631;-84
2023/08/10 10:57:43;;;;;;;4.20;1.60;;;;;;;;;;4936774;28;100944;-84
2023/08/10 11:00:12;;;;;;;3.80;1.60;;;;;;;;;;4949869;28;99367;-84
2023/08/10 11:02:39;;;;;;;5.18;1.80;;;;;;;;;;4937697;28;101141;-85
2023/08/10 11:05:10;;;;;;;4.60;1.50;;;;;;;;;;4948552;28;98878;-85
2023/08/10 11:07:41;;;;;;;4.63;1.65;;;;;;;;;;4940297;28;100209;-86
2023/08/10 11:10:10;;;;;;;3.75;1.42;;;;;;;;;;4937809;28;101229;-84
2023/08/10 11:12:38;;;;;;;5.47;1.70;;;;;;;;;;4934635;28;98576;-82
2023/08/10 11:15:05;;;;;;;4.85;1.90;;;;;;;;;;4943723;28;99921;-83
2023/08/10 11:17:32;;;;;;;5.47;1.83;;;;;;;;;;4935809;28;98488;-81
2023/08/10 11:20:15;;;;;;;6.07;1.80;;;;;;;;;;4950136;28;99008;-83
2023/08/10 11:22:43;;;;;;;4.93;1.45;;;;;;;;;;4949650;28;98981;-83
2023/08/10 11:25:10;;;;;;;5.60;1.98;;;;;;;;;;4942836;28;99245;-83
2023/08/10 11:27:47;;;;;;;4.93;1.80;;;;;;;;;;4932610;28;101896;-83
2023/08/10 11:30:15;;;;;;;3.33;1.65;;;;;;;;;;4947821;28;99404;-85
2023/08/10 11:32:42;;;;;;;5.15;1.52;;;;;;;;;;4921075;28;100072;-83
2023/08/10 11:35:10;;;;;;;3.88;1.60;;;;;;;;;;4935432;28;98978;-83
2023/08/10 11:37:40;;;;;;;4.95;1.60;;;;;;;;;;4929783;28;98979;-83
2023/08/10 11:40:12;;;;;;;4.93;1.98;;;;;;;;;;4958230;28;98868;-83
2023/08/10 11:42:40;;;;;;;4.75;1.70;;;;;;;;;;4942049;28;99714;-84
2023/08/10 11:45:20;;;;;;;5.38;1.70;;;;;;;;;;4931952;28;99793;-83
2023/08/10 11:47:47;;;;;;;2.90;1.38;;;;;;;;;;4947344;28;98535;-83
2023/08/10 11:50:18;;;;;;;4.07;1.70;;;;;;;;;;4935547;28;99835;-82
2023/08/10 11:52:45;;;;;;;3.95;1.58;;;;;;;;;;4935859;28;99029;-83
2023/08/10 11:55:13;;;;;;;5.20;1.60;;;;;;;;;;4944666;28;99414;-83
2023/08/10 11:57:45;;;;;;;4.32;1.50;;;;;;;;;;4930860;28;99273;-83
2023/08/10 12:00:21;;;;;;;5.03;1.80;;;;;;;;;;4944956;28;98985;-81
2023/08/10 12:02:58;;;;;;;4.78;1.90;;;;;;;;;;4945841;28;98459;-84
2023/08/10 12:05:42;;;;;;;6.20;1.85;;;;;;;;;;4936113;28;99338;-83
2023/08/10 12:08:19;;;;;;;4.03;1.80;;;;;;;;;;4940155;28;99352;-82
2023/08/10 12:10:50;;;;;;;4.07;1.58;;;;;;;;;;4938921;28;99235;-85
2023/08/10 12:13:19;;;;;;;4.85;1.70;;;;;;;;;;4942361;28;98552;-83
2023/08/10 12:15:46;;;;;;;4.53;1.80;;;;;;;;;;4948243;28;99334;-83
2023/08/10 12:18:15;;;;;;;4.10;1.80;;;;;;;;;;4954022;28;98872;-83
2023/08/10 12:20:42;;;;;;;5.85;1.88;;;;;;;;;;4948064;28;99049;-82
2023/08/10 12:23:09;;;;;;;6.32;1.80;;;;;;;;;;4953045;28;98776;-83
2023/08/10 12:25:36;;;;;;;3.60;1.60;;;;;;;;;;4940042;28;99339;-82
2023/08/10 12:28:04;;;;;;;3.60;1.30;;;;;;;;;;4929388;28;98497;-82
2023/08/10 12:30:31;;;;;;;3.53;1.65;;;;;;;;;;4928887;28;98931;-83
2023/08/10 12:32:57;;;;;;;5.60;1.80;;;;;;;;;;4941468;28;98785;-83
2023/08/10 12:35:24;;;;;;;3.38;1.63;;;;;;;;;;4945484;28;99567;-83
2023/08/10 12:37:50;;;;;;;3.65;1.60;;;;;;;;;;4940027;28;100207;-83
2023/08/10 12:40:17;;;;;;;4.07;1.50;;;;;;;;;;4938092;28;99251;-83
2023/08/10 12:42:44;;;;;;;3.22;1.55;;;;;;;;;;4929027;28;98604;-82
2023/08/10 12:45:11;;;;;;;3.70;1.52;;;;;;;;;;4944455;28;99740;-82
2023/08/10 12:47:38;;;;;;;4.65;1.60;;;;;;;;;;4945742;28;98917;-82
2023/08/10 12:50:05;;;;;;;;;;;;;;;;;;4938469;28;98724;-82
2023/08/10 12:52:31;;;;;;;4.28;1.60;;;;;;;;;;4941875;28;116380;-82
2023/08/10 12:54:59;;;;;;;6.32;2.00;;;;;;;;;;4931198;28;98490;-83
2023/08/10 12:57:25;;;;;;;6.20;1.80;;;;;;;;;;4932797;28;98850;-82
2023/08/10 12:59:52;;;;;;;5.22;1.90;;;;;;;;;;4936134;28;99115;-83
2023/08/10 13:02:18;;;;;;;5.43;1.83;;;;;;;;;;4934798;28;99320;-83
2023/08/10 13:04:58;;;;;;;3.10;1.60;;;;;;;;;;4947582;28;101252;-83
2023/08/10 13:07:25;;;;;;;3.63;1.67;;;;;;;;;;4943413;28;98620;-83
2023/08/10 13:09:53;;;;;;;5.85;1.92;;;;;;;;;;4931463;28;100048;-82
2023/08/10 13:12:19;;;;;;;4.53;1.60;;;;;;;;;;4937723;28;99139;-83
2023/08/10 13:14:46;;;;;;;4.00;1.88;;;;;;;;;;4952973;28;98496;-82
2023/08/10 13:17:12;;;;;;;5.20;1.80;;;;;;;;;;4938262;28;100091;-81
2023/08/10 13:19:39;;;;;;;4.22;1.35;;;;;;;;;;4944295;28;98540;-83
2023/08/10 13:22:10;;;;;;;5.45;1.60;;;;;;;;;;4943672;28;99220;-82
2023/08/10 13:24:37;;;;;;;6.88;1.55;;;;;;;;;;4933127;28;99315;-82
2023/08/10 13:27:04;;;;;;;3.25;1.50;;;;;;;;;;4947043;28;98758;-82
2023/08/10 13:29:31;;;;;;;3.92;1.40;;;;;;;;;;4927757;28;100097;-83
2023/08/10 13:31:57;;;;;;;3.53;1.60;;;;;;;;;;4933589;28;99917;-81
2023/08/10 13:34:24;;;;;;;4.10;1.48;;;;;;;;;;4932944;28;98735;-83
2023/08/10 13:36:55;;;;;;;4.50;1.48;;;;;;;;;;4932396;28;99004;-83
2023/08/10 13:39:23;;;;;;;6.20;1.40;;;;;;;;;;4927000;28;98562;-83
2023/08/10 13:41:50;;;;;;;6.10;1.45;;;;;;;;;;4928583;28;100140;-82
2023/08/10 13:44:16;;;;;;;2.90;1.30;;;;;;;;;;4935925;28;99080;-83
2023/08/10 13:46:43;;;;;;;6.28;1.67;;;;;;;;;;4932217;28;97940;-82
2023/08/10 13:49:11;;;;;;;4.20;1.70;;;;;;;;;;4927903;28;98846;-82
2023/08/10 13:51:38;;;;;;;2.47;1.38;;;;;;;;;;4937298;28;99171;-82
2023/08/10 13:54:05;;;;;;;1.70;1.20;;;;;;;;;;4925729;28;99471;-84
2023/08/10 13:56:51;;;;;;;3.13;1.30;;;;;;;;;;4941829;28;98496;-83
2023/08/10 13:59:17;;;;;;;3.92;1.40;;;;;;;;;;4950881;28;99300;-83
2023/08/10 14:01:44;;;;;;;2.80;1.50;;;;;;;;;;4941139;28;99144;-82
2023/08/10 14:04:11;;;;;;;2.75;1.60;;;;;;;;;;4926455;28;101877;-83
2023/08/10 14:06:38;;;;;;;;;;;;;;;;;;4933065;28;98512;-83
2023/08/10 14:09:04;;;;;;;1.95;1.30;;;;;;;;;;4940025;28;113367;-82
2023/08/10 14:11:31;;;;;;;3.10;1.40;;;;;;;;;;4963558;28;97842;-83
2023/08/10 14:13:58;;;;;;;3.38;1.50;;;;;;;;;;4947478;28;98307;-83
2023/08/10 14:16:24;;;;;;;3.33;1.40;;;;;;;;;;4944340;28;101040;-82
2023/08/10 14:18:51;;;;;;;2.60;1.40;;;;;;;;;;4950163;28;101102;-82
2023/08/10 14:21:19;;;;;;;3.22;1.45;;;;;;;;;;4946572;28;99605;-82
2023/08/10 14:23:45;;;;;;;2.85;1.48;;;;;;;;;;4953130;28;98340;-83
2023/08/10 14:26:12;;;;;;;2.60;1.33;;;;;;;;;;4954681;28;98573;-83
2023/08/10 14:28:38;;;;;;;3.08;1.40;;;;;;;;;;4957425;28;98767;-83
2023/08/10 14:31:05;;;;;;;3.53;1.63;;;;;;;;;;4956732;28;98226;-83
2023/08/10 14:33:32;;;;;;;2.88;1.45;;;;;;;;;;4955011;28;97949;-83
2023/08/10 14:35:58;;;;;;;5.30;2.15;;;;;;;;;;4964137;28;98195;-83
2023/08/10 14:38:25;;;;;;;4.60;2.15;;;;;;;;;;4956556;28;100182;-83
2023/08/10 14:41:08;;;;;;;3.00;1.67;;;;;;;;;;4950749;28;98770;-82
2023/08/10 14:43:35;;;;;;;5.40;1.98;;;;;;;;;;4945724;28;99238;-81
2023/08/10 14:46:02;;;;;;;6.70;2.40;;;;;;;;;;4945234;28;98671;-82